Pagrindinis puslapis
METAR-TAF:

METAR-TAF

Oro uostai :

Bender Mahšahras, Iranas

platuma: 30-33-23N, ilguma: 049-09-07E, Aukštis: 2 m

Dabartinis oras

Ataskaita buvo paskelbta 47 minutes, ne 08:00 UTC
Vėjas 6 kt iš Vakarų/Pietvakarių
Temperatūra 32°C
Drėgmė 29%
Slėgis 1012 hPa
Matomumas 10 km arba daugiau
nėra debesų žemiau 1500 m ir nėra kamuolinių lietaus debesų

METAR: OIAM 180800Z 24006KT CAVOK 32/12 Q1012

Laikas: 12:17 (08:47 UTC)


TAF: trūkstamas

Orai ataskaitas ir orų prognozės (METAR, TAF).

turimą stotys yra geltonos ir raudonos taškus žemėlapyje.

Perkelti pele per norėdami pamatyti stoties vardą.

Tada spustelėkite, norėdami matyti oro stebėjimo ir prognozės.

Norėdami pakeisti žemėlapį: spustelėkite ant žalios mygtukų su juodo kryžiaus žemyn,; žalią mygtuką su brūkšneliu, jei norite nutolinti; arba žalių rodyklių gretimoms žemėlapius.


METAR-TAF: